Rosedale, New York
Current Conditions -  °F | °C
As of 7:51 AM on Friday 28 Nov 2014 (Local Time) from KJFK Reporting Station
Scattered Clouds Scattered Clouds  
Wind Chill: 23°   Ceiling: Unl
Heat Index: 33°   Visibility: 10mi
Dew Point: 21°   Wind: 15mph
Humidity: 61%   Direction: 310°NW
Pressure: 30.15"   Gusts: NA
Location:  40.66°N, 73.73°W
Report Text: KJFK 281251Z 31013KT 10SM FEW040 SCT130 01/M06 A3015 RMK AO2 SLP210 T00061061 $
Loading
Personal Weather Stations






























Interactive Weather Map New forecast layout! Learn more

10-Day Weather Forecast

Advertisements
Track Severe Weather on mobile